sensor_id;sensor_type;location;lat;lon;timestamp;temperature;humidity
75683;HTU21D;64295;44.772;39.872;2023-05-07T00:00:22;18.58;55.84
75683;HTU21D;64295;44.772;39.872;2023-05-07T00:02:48;18.56;55.88
75683;HTU21D;64295;44.772;39.872;2023-05-07T00:05:14;18.52;55.95
75683;HTU21D;64295;44.772;39.872;2023-05-07T00:07:40;18.49;56.06
75683;HTU21D;64295;44.772;39.872;2023-05-07T00:10:06;18.47;56.12
75683;HTU21D;64295;44.772;39.872;2023-05-07T00:12:34;18.46;56.14
75683;HTU21D;64295;44.772;39.872;2023-05-07T00:15:04;18.42;56.19
75683;HTU21D;64295;44.772;39.872;2023-05-07T00:17:30;18.41;56.23
75683;HTU21D;64295;44.772;39.872;2023-05-07T00:19:56;18.41;56.27
75683;HTU21D;64295;44.772;39.872;2023-05-07T00:22:22;18.39;56.30
75683;HTU21D;64295;44.772;39.872;2023-05-07T00:24:48;18.33;56.40
75683;HTU21D;64295;44.772;39.872;2023-05-07T00:27:14;18.32;56.47
75683;HTU21D;64295;44.772;39.872;2023-05-07T00:29:39;18.30;56.48
75683;HTU21D;64295;44.772;39.872;2023-05-07T00:32:05;18.30;56.48
75683;HTU21D;64295;44.772;39.872;2023-05-07T00:34:31;18.27;56.52
75683;HTU21D;64295;44.772;39.872;2023-05-07T00:36:57;18.25;56.54
75683;HTU21D;64295;44.772;39.872;2023-05-07T00:39:23;18.24;56.56
75683;HTU21D;64295;44.772;39.872;2023-05-07T00:41:49;18.21;56.59
75683;HTU21D;64295;44.772;39.872;2023-05-07T00:44:16;18.20;56.61
75683;HTU21D;64295;44.772;39.872;2023-05-07T00:46:44;18.15;56.64
75683;HTU21D;64295;44.772;39.872;2023-05-07T00:49:15;18.11;56.71
75683;HTU21D;64295;44.772;39.872;2023-05-07T00:51:42;18.06;56.76
75683;HTU21D;64295;44.772;39.872;2023-05-07T00:54:08;18.05;56.79
75683;HTU21D;64295;44.772;39.872;2023-05-07T00:56:34;18.03;56.81
75683;HTU21D;64295;44.772;39.872;2023-05-07T00:59:01;18.04;56.78
75683;HTU21D;64295;44.772;39.872;2023-05-07T01:01:28;18.03;56.75
75683;HTU21D;64295;44.772;39.872;2023-05-07T01:03:54;18.03;56.79
75683;HTU21D;64295;44.772;39.872;2023-05-07T01:06:21;17.97;56.87
75683;HTU21D;64295;44.772;39.872;2023-05-07T01:08:48;17.95;56.93
75683;HTU21D;64295;44.772;39.872;2023-05-07T01:11:16;17.93;56.97
75683;HTU21D;64295;44.772;39.872;2023-05-07T01:13:45;17.91;56.98
75683;HTU21D;64295;44.772;39.872;2023-05-07T01:16:11;17.88;57.03
75683;HTU21D;64295;44.772;39.872;2023-05-07T01:18:38;17.85;57.08
75683;HTU21D;64295;44.772;39.872;2023-05-07T01:21:06;17.82;57.15
75683;HTU21D;64295;44.772;39.872;2023-05-07T01:23:33;17.81;57.19
75683;HTU21D;64295;44.772;39.872;2023-05-07T01:26:01;17.78;57.22
75683;HTU21D;64295;44.772;39.872;2023-05-07T01:28:28;17.77;57.25
75683;HTU21D;64295;44.772;39.872;2023-05-07T01:31:02;17.77;57.29
75683;HTU21D;64295;44.772;39.872;2023-05-07T01:33:32;17.75;57.29
75683;HTU21D;64295;44.772;39.872;2023-05-07T01:35:59;17.74;57.34
75683;HTU21D;64295;44.772;39.872;2023-05-07T01:38:28;17.73;57.35
75683;HTU21D;64295;44.772;39.872;2023-05-07T01:40:54;17.70;57.38
75683;HTU21D;64295;44.772;39.872;2023-05-07T01:43:20;17.68;57.44
75683;HTU21D;64295;44.772;39.872;2023-05-07T01:45:46;17.65;57.53
75683;HTU21D;64295;44.772;39.872;2023-05-07T01:48:15;17.59;57.65
75683;HTU21D;64295;44.772;39.872;2023-05-07T01:50:42;17.56;57.74
75683;HTU21D;64295;44.772;39.872;2023-05-07T01:53:09;17.53;57.80
75683;HTU21D;64295;44.772;39.872;2023-05-07T01:55:35;17.52;57.84
75683;HTU21D;64295;44.772;39.872;2023-05-07T01:58:03;17.53;57.86
75683;HTU21D;64295;44.772;39.872;2023-05-07T02:00:29;17.52;57.90
75683;HTU21D;64295;44.772;39.872;2023-05-07T02:02:56;17.49;58.00
75683;HTU21D;64295;44.772;39.872;2023-05-07T02:05:36;17.48;58.03
75683;HTU21D;64295;44.772;39.872;2023-05-07T02:08:12;17.44;58.16
75683;HTU21D;64295;44.772;39.872;2023-05-07T02:10:38;17.43;58.24
75683;HTU21D;64295;44.772;39.872;2023-05-07T02:13:05;17.41;58.31
75683;HTU21D;64295;44.772;39.872;2023-05-07T02:15:31;17.41;58.36
75683;HTU21D;64295;44.772;39.872;2023-05-07T02:18:01;17.40;58.38
75683;HTU21D;64295;44.772;39.872;2023-05-07T02:20:27;17.44;58.41
75683;HTU21D;64295;44.772;39.872;2023-05-07T02:22:53;17.40;58.48
75683;HTU21D;64295;44.772;39.872;2023-05-07T02:25:19;17.38;58.55
75683;HTU21D;64295;44.772;39.872;2023-05-07T02:27:45;17.37;58.65
75683;HTU21D;64295;44.772;39.872;2023-05-07T02:30:12;17.37;58.67
75683;HTU21D;64295;44.772;39.872;2023-05-07T02:32:38;17.33;58.78
75683;HTU21D;64295;44.772;39.872;2023-05-07T02:35:05;17.32;58.87
75683;HTU21D;64295;44.772;39.872;2023-05-07T02:37:31;17.30;58.94
75683;HTU21D;64295;44.772;39.872;2023-05-07T02:39:57;17.30;58.96
75683;HTU21D;64295;44.772;39.872;2023-05-07T02:42:22;17.29;59.03
75683;HTU21D;64295;44.772;39.872;2023-05-07T02:44:48;17.24;59.11
75683;HTU21D;64295;44.772;39.872;2023-05-07T02:47:15;17.28;59.12
75683;HTU21D;64295;44.772;39.872;2023-05-07T02:49:43;17.26;59.15
75683;HTU21D;64295;44.772;39.872;2023-05-07T02:52:09;17.24;59.22
75683;HTU21D;64295;44.772;39.872;2023-05-07T02:54:35;17.24;59.24
75683;HTU21D;64295;44.772;39.872;2023-05-07T02:57:00;17.21;59.34
75683;HTU21D;64295;44.772;39.872;2023-05-07T02:59:28;17.19;59.38
75683;HTU21D;64295;44.772;39.872;2023-05-07T03:01:54;17.19;59.43
75683;HTU21D;64295;44.772;39.872;2023-05-07T03:04:20;17.16;59.50
75683;HTU21D;64295;44.772;39.872;2023-05-07T03:06:46;17.18;59.52
75683;HTU21D;64295;44.772;39.872;2023-05-07T03:09:12;17.13;59.63
75683;HTU21D;64295;44.772;39.872;2023-05-07T03:11:38;17.08;59.77
75683;HTU21D;64295;44.772;39.872;2023-05-07T03:14:04;17.06;59.80
75683;HTU21D;64295;44.772;39.872;2023-05-07T03:16:30;17.08;59.80
75683;HTU21D;64295;44.772;39.872;2023-05-07T03:18:56;17.09;59.78
75683;HTU21D;64295;44.772;39.872;2023-05-07T03:21:22;17.07;59.84
75683;HTU21D;64295;44.772;39.872;2023-05-07T03:23:48;17.06;59.88
75683;HTU21D;64295;44.772;39.872;2023-05-07T03:26:14;17.05;59.93
75683;HTU21D;64295;44.772;39.872;2023-05-07T03:28:42;17.01;60.07
75683;HTU21D;64295;44.772;39.872;2023-05-07T03:31:11;17.01;60.09
75683;HTU21D;64295;44.772;39.872;2023-05-07T03:33:52;16.99;60.16
75683;HTU21D;64295;44.772;39.872;2023-05-07T03:36:18;17.03;60.06
75683;HTU21D;64295;44.772;39.872;2023-05-07T03:38:44;17.03;60.07
75683;HTU21D;64295;44.772;39.872;2023-05-07T03:41:11;17.06;60.02
75683;HTU21D;64295;44.772;39.872;2023-05-07T03:43:38;17.11;59.98
75683;HTU21D;64295;44.772;39.872;2023-05-07T03:46:08;17.10;60.00
75683;HTU21D;64295;44.772;39.872;2023-05-07T03:48:34;17.07;60.12
75683;HTU21D;64295;44.772;39.872;2023-05-07T03:51:00;17.06;60.15
75683;HTU21D;64295;44.772;39.872;2023-05-07T03:53:30;17.04;60.19
75683;HTU21D;64295;44.772;39.872;2023-05-07T03:55:56;17.08;60.19
75683;HTU21D;64295;44.772;39.872;2023-05-07T03:58:22;17.10;60.17
75683;HTU21D;64295;44.772;39.872;2023-05-07T04:00:48;17.14;60.15
75683;HTU21D;64295;44.772;39.872;2023-05-07T04:03:21;17.18;60.09
75683;HTU21D;64295;44.772;39.872;2023-05-07T04:05:48;17.16;60.15
75683;HTU21D;64295;44.772;39.872;2023-05-07T04:08:13;17.17;60.18
75683;HTU21D;64295;44.772;39.872;2023-05-07T04:10:45;17.17;60.24
75683;HTU21D;64295;44.772;39.872;2023-05-07T04:13:12;17.16;60.31
75683;HTU21D;64295;44.772;39.872;2023-05-07T04:15:38;17.15;60.38
75683;HTU21D;64295;44.772;39.872;2023-05-07T04:18:08;17.10;60.51
75683;HTU21D;64295;44.772;39.872;2023-05-07T04:20:35;17.06;60.64
75683;HTU21D;64295;44.772;39.872;2023-05-07T04:23:07;17.07;60.67
75683;HTU21D;64295;44.772;39.872;2023-05-07T04:25:34;17.07;60.68
75683;HTU21D;64295;44.772;39.872;2023-05-07T04:28:07;17.04;60.75
75683;HTU21D;64295;44.772;39.872;2023-05-07T04:30:44;17.03;60.85
75683;HTU21D;64295;44.772;39.872;2023-05-07T04:33:11;17.02;60.90
75683;HTU21D;64295;44.772;39.872;2023-05-07T04:35:40;17.04;60.93
75683;HTU21D;64295;44.772;39.872;2023-05-07T04:38:07;17.02;60.95
75683;HTU21D;64295;44.772;39.872;2023-05-07T04:40:42;17.08;60.89
75683;HTU21D;64295;44.772;39.872;2023-05-07T04:43:11;17.09;60.85
75683;HTU21D;64295;44.772;39.872;2023-05-07T04:45:43;17.13;60.82
75683;HTU21D;64295;44.772;39.872;2023-05-07T04:48:10;17.16;60.80
75683;HTU21D;64295;44.772;39.872;2023-05-07T04:50:39;17.16;60.89
75683;HTU21D;64295;44.772;39.872;2023-05-07T04:53:06;17.14;60.94
75683;HTU21D;64295;44.772;39.872;2023-05-07T04:55:32;17.13;60.99
75683;HTU21D;64295;44.772;39.872;2023-05-07T04:57:58;17.13;60.99
75683;HTU21D;64295;44.772;39.872;2023-05-07T05:00:26;17.18;60.96
75683;HTU21D;64295;44.772;39.872;2023-05-07T05:02:53;17.17;60.97
75683;HTU21D;64295;44.772;39.872;2023-05-07T05:05:22;17.17;61.01
75683;HTU21D;64295;44.772;39.872;2023-05-07T05:07:50;17.20;60.99
75683;HTU21D;64295;44.772;39.872;2023-05-07T05:10:17;17.23;60.99
75683;HTU21D;64295;44.772;39.872;2023-05-07T05:12:43;17.22;61.01
75683;HTU21D;64295;44.772;39.872;2023-05-07T05:15:12;17.22;61.06
75683;HTU21D;64295;44.772;39.872;2023-05-07T05:17:39;17.26;60.99
75683;HTU21D;64295;44.772;39.872;2023-05-07T05:20:06;17.30;60.96
75683;HTU21D;64295;44.772;39.872;2023-05-07T05:22:32;17.35;60.93
75683;HTU21D;64295;44.772;39.872;2023-05-07T05:24:59;17.35;60.95
75683;HTU21D;64295;44.772;39.872;2023-05-07T05:27:26;17.34;61.02
75683;HTU21D;64295;44.772;39.872;2023-05-07T05:29:52;17.34;61.05
75683;HTU21D;64295;44.772;39.872;2023-05-07T05:32:18;17.38;61.04
75683;HTU21D;64295;44.772;39.872;2023-05-07T05:34:44;17.43;60.99
75683;HTU21D;64295;44.772;39.872;2023-05-07T05:37:10;17.45;60.98
75683;HTU21D;64295;44.772;39.872;2023-05-07T05:39:36;17.47;61.00
75683;HTU21D;64295;44.772;39.872;2023-05-07T05:42:03;17.49;61.02
75683;HTU21D;64295;44.772;39.872;2023-05-07T05:44:30;17.52;61.02
75683;HTU21D;64295;44.772;39.872;2023-05-07T05:46:56;17.55;60.99
75683;HTU21D;64295;44.772;39.872;2023-05-07T05:49:25;17.56;60.99
75683;HTU21D;64295;44.772;39.872;2023-05-07T05:51:51;17.59;61.01
75683;HTU21D;64295;44.772;39.872;2023-05-07T05:54:17;17.62;60.99
75683;HTU21D;64295;44.772;39.872;2023-05-07T05:56:43;17.64;60.98
75683;HTU21D;64295;44.772;39.872;2023-05-07T05:59:10;17.63;61.07
75683;HTU21D;64295;44.772;39.872;2023-05-07T06:01:36;17.67;61.05
75683;HTU21D;64295;44.772;39.872;2023-05-07T06:04:04;17.70;61.02
75683;HTU21D;64295;44.772;39.872;2023-05-07T06:06:30;17.75;60.99
75683;HTU21D;64295;44.772;39.872;2023-05-07T06:08:57;17.78;60.99
75683;HTU21D;64295;44.772;39.872;2023-05-07T06:11:31;17.79;61.00
75683;HTU21D;64295;44.772;39.872;2023-05-07T06:13:58;17.81;61.00
75683;HTU21D;64295;44.772;39.872;2023-05-07T06:16:25;17.89;60.96
75683;HTU21D;64295;44.772;39.872;2023-05-07T06:18:52;17.96;60.86
75683;HTU21D;64295;44.772;39.872;2023-05-07T06:21:18;18.04;60.77
75683;HTU21D;64295;44.772;39.872;2023-05-07T06:23:43;18.13;60.69
75683;HTU21D;64295;44.772;39.872;2023-05-07T06:26:10;18.22;60.64
75683;HTU21D;64295;44.772;39.872;2023-05-07T06:28:40;18.28;60.57
75683;HTU21D;64295;44.772;39.872;2023-05-07T06:31:18;18.36;60.55
75683;HTU21D;64295;44.772;39.872;2023-05-07T06:34:00;18.42;60.45
75683;HTU21D;64295;44.772;39.872;2023-05-07T06:36:33;18.52;60.37
75683;HTU21D;64295;44.772;39.872;2023-05-07T06:39:03;18.56;60.34
75683;HTU21D;64295;44.772;39.872;2023-05-07T06:41:29;18.63;60.36
75683;HTU21D;64295;44.772;39.872;2023-05-07T06:43:59;18.68;60.32
75683;HTU21D;64295;44.772;39.872;2023-05-07T06:46:45;18.74;60.25
75683;HTU21D;64295;44.772;39.872;2023-05-07T06:49:13;18.81;60.28
75683;HTU21D;64295;44.772;39.872;2023-05-07T06:51:39;18.80;60.35
75683;HTU21D;64295;44.772;39.872;2023-05-07T06:54:06;18.81;60.40
75683;HTU21D;64295;44.772;39.872;2023-05-07T06:56:33;18.83;60.44
75683;HTU21D;64295;44.772;39.872;2023-05-07T06:59:02;18.84;60.34
75683;HTU21D;64295;44.772;39.872;2023-05-07T07:01:32;18.82;60.37
75683;HTU21D;64295;44.772;39.872;2023-05-07T07:04:00;18.83;60.44
75683;HTU21D;64295;44.772;39.872;2023-05-07T07:06:27;18.84;60.53
75683;HTU21D;64295;44.772;39.872;2023-05-07T07:08:54;18.82;60.60
75683;HTU21D;64295;44.772;39.872;2023-05-07T07:11:20;18.82;60.64
75683;HTU21D;64295;44.772;39.872;2023-05-07T07:13:47;18.83;60.67
75683;HTU21D;64295;44.772;39.872;2023-05-07T07:16:13;18.86;60.66
75683;HTU21D;64295;44.772;39.872;2023-05-07T07:18:39;18.88;60.66
75683;HTU21D;64295;44.772;39.872;2023-05-07T07:21:05;18.86;60.68
75683;HTU21D;64295;44.772;39.872;2023-05-07T07:23:31;18.86;60.73
75683;HTU21D;64295;44.772;39.872;2023-05-07T07:25:57;18.87;60.70
75683;HTU21D;64295;44.772;39.872;2023-05-07T07:28:23;18.88;60.68
75683;HTU21D;64295;44.772;39.872;2023-05-07T07:30:49;18.89;60.70
75683;HTU21D;64295;44.772;39.872;2023-05-07T07:33:16;18.94;60.67
75683;HTU21D;64295;44.772;39.872;2023-05-07T07:35:43;18.98;60.62
75683;HTU21D;64295;44.772;39.872;2023-05-07T07:38:10;18.98;60.61
75683;HTU21D;64295;44.772;39.872;2023-05-07T07:40:39;18.98;60.61
75683;HTU21D;64295;44.772;39.872;2023-05-07T07:43:07;18.99;60.62
75683;HTU21D;64295;44.772;39.872;2023-05-07T07:45:33;19.05;60.57
75683;HTU21D;64295;44.772;39.872;2023-05-07T07:48:01;19.10;60.50
75683;HTU21D;64295;44.772;39.872;2023-05-07T07:50:29;19.11;60.49
75683;HTU21D;64295;44.772;39.872;2023-05-07T07:52:55;19.15;60.47
75683;HTU21D;64295;44.772;39.872;2023-05-07T07:55:23;19.20;60.43
75683;HTU21D;64295;44.772;39.872;2023-05-07T07:57:51;19.23;60.37
75683;HTU21D;64295;44.772;39.872;2023-05-07T08:00:17;19.28;60.35
75683;HTU21D;64295;44.772;39.872;2023-05-07T08:02:43;19.37;60.27
75683;HTU21D;64295;44.772;39.872;2023-05-07T08:05:12;19.43;60.05
75683;HTU21D;64295;44.772;39.872;2023-05-07T08:07:39;19.47;59.96
75683;HTU21D;64295;44.772;39.872;2023-05-07T08:10:05;19.51;59.96
75683;HTU21D;64295;44.772;39.872;2023-05-07T08:12:31;19.53;59.97
75683;HTU21D;64295;44.772;39.872;2023-05-07T08:14:58;19.51;60.06
75683;HTU21D;64295;44.772;39.872;2023-05-07T08:17:24;19.50;60.13
75683;HTU21D;64295;44.772;39.872;2023-05-07T08:19:50;19.56;60.09
75683;HTU21D;64295;44.772;39.872;2023-05-07T08:22:16;19.58;60.08
75683;HTU21D;64295;44.772;39.872;2023-05-07T08:24:44;19.58;60.06
75683;HTU21D;64295;44.772;39.872;2023-05-07T08:27:11;19.51;60.08
75683;HTU21D;64295;44.772;39.872;2023-05-07T08:29:41;19.48;60.07
75683;HTU21D;64295;44.772;39.872;2023-05-07T08:32:07;19.44;60.05
75683;HTU21D;64295;44.772;39.872;2023-05-07T08:34:33;19.40;60.08
75683;HTU21D;64295;44.772;39.872;2023-05-07T08:37:02;19.41;60.01
75683;HTU21D;64295;44.772;39.872;2023-05-07T08:39:29;19.42;59.95
75683;HTU21D;64295;44.772;39.872;2023-05-07T08:41:55;19.41;59.91
75683;HTU21D;64295;44.772;39.872;2023-05-07T08:44:26;19.41;59.83
75683;HTU21D;64295;44.772;39.872;2023-05-07T08:46:58;19.40;59.81
75683;HTU21D;64295;44.772;39.872;2023-05-07T08:49:27;19.38;59.82
75683;HTU21D;64295;44.772;39.872;2023-05-07T08:51:53;19.37;59.79
75683;HTU21D;64295;44.772;39.872;2023-05-07T08:54:21;19.39;59.68
75683;HTU21D;64295;44.772;39.872;2023-05-07T08:56:47;19.42;59.57
75683;HTU21D;64295;44.772;39.872;2023-05-07T08:59:14;19.42;59.49
75683;HTU21D;64295;44.772;39.872;2023-05-07T09:01:48;19.41;59.42
75683;HTU21D;64295;44.772;39.872;2023-05-07T09:04:14;19.40;59.41
75683;HTU21D;64295;44.772;39.872;2023-05-07T09:06:46;19.42;59.35
75683;HTU21D;64295;44.772;39.872;2023-05-07T09:09:16;19.42;59.32
75683;HTU21D;64295;44.772;39.872;2023-05-07T09:11:47;19.37;59.31
75683;HTU21D;64295;44.772;39.872;2023-05-07T09:14:17;19.41;59.28
75683;HTU21D;64295;44.772;39.872;2023-05-07T09:16:47;19.47;59.18
75683;HTU21D;64295;44.772;39.872;2023-05-07T09:19:14;19.47;59.17
75683;HTU21D;64295;44.772;39.872;2023-05-07T09:21:44;19.47;59.16
75683;HTU21D;64295;44.772;39.872;2023-05-07T09:24:11;19.52;59.11
75683;HTU21D;64295;44.772;39.872;2023-05-07T09:26:40;19.51;59.07
75683;HTU21D;64295;44.772;39.872;2023-05-07T09:29:10;19.54;59.03
75683;HTU21D;64295;44.772;39.872;2023-05-07T09:31:37;19.52;59.03
75683;HTU21D;64295;44.772;39.872;2023-05-07T09:34:07;19.53;59.03
75683;HTU21D;64295;44.772;39.872;2023-05-07T09:36:46;19.52;59.03
75683;HTU21D;64295;44.772;39.872;2023-05-07T09:39:13;19.54;58.99
75683;HTU21D;64295;44.772;39.872;2023-05-07T09:41:47;19.55;58.93
75683;HTU21D;64295;44.772;39.872;2023-05-07T09:44:32;19.50;59.03
75683;HTU21D;64295;44.772;39.872;2023-05-07T09:47:00;19.51;59.02
75683;HTU21D;64295;44.772;39.872;2023-05-07T09:49:35;19.50;58.96
75683;HTU21D;64295;44.772;39.872;2023-05-07T09:52:06;19.47;58.95
75683;HTU21D;64295;44.772;39.872;2023-05-07T09:54:43;19.45;58.95
75683;HTU21D;64295;44.772;39.872;2023-05-07T09:57:34;19.44;58.92
75683;HTU21D;64295;44.772;39.872;2023-05-07T10:00:05;19.44;58.87
75683;HTU21D;64295;44.772;39.872;2023-05-07T10:02:48;19.46;58.83
75683;HTU21D;64295;44.772;39.872;2023-05-07T10:05:18;19.45;58.86
75683;HTU21D;64295;44.772;39.872;2023-05-07T10:07:46;19.43;58.88
75683;HTU21D;64295;44.772;39.872;2023-05-07T10:10:14;19.36;58.96
75683;HTU21D;64295;44.772;39.872;2023-05-07T10:12:50;19.28;58.85
75683;HTU21D;64295;44.772;39.872;2023-05-07T10:15:28;19.18;58.90
75683;HTU21D;64295;44.772;39.872;2023-05-07T10:17:59;19.13;58.91
75683;HTU21D;64295;44.772;39.872;2023-05-07T10:20:33;19.08;58.83
75683;HTU21D;64295;44.772;39.872;2023-05-07T10:23:04;19.07;58.80
75683;HTU21D;64295;44.772;39.872;2023-05-07T10:25:36;19.02;58.81
75683;HTU21D;64295;44.772;39.872;2023-05-07T10:28:11;19.01;58.70
75683;HTU21D;64295;44.772;39.872;2023-05-07T10:31:18;19.01;58.64
75683;HTU21D;64295;44.772;39.872;2023-05-07T10:34:07;18.92;58.73
75683;HTU21D;64295;44.772;39.872;2023-05-07T10:36:37;18.83;58.90
75683;HTU21D;64295;44.772;39.872;2023-05-07T10:39:06;18.72;59.12
75683;HTU21D;64295;44.772;39.872;2023-05-07T10:41:48;18.67;59.22
75683;HTU21D;64295;44.772;39.872;2023-05-07T10:44:36;18.64;59.32
75683;HTU21D;64295;44.772;39.872;2023-05-07T10:47:12;18.67;59.22
75683;HTU21D;64295;44.772;39.872;2023-05-07T10:52:23;19.06;58.55
75683;HTU21D;64295;44.772;39.872;2023-05-07T10:55:21;19.17;58.29
75683;HTU21D;64295;44.772;39.872;2023-05-07T11:01:01;19.29;58.09
75683;HTU21D;64295;44.772;39.872;2023-05-07T11:04:14;19.25;58.13
75683;HTU21D;64295;44.772;39.872;2023-05-07T11:10:02;19.15;57.96
75683;HTU21D;64295;44.772;39.872;2023-05-07T11:12:55;19.10;57.93
75683;HTU21D;64295;44.772;39.872;2023-05-07T11:15:46;19.15;57.76
75683;HTU21D;64295;44.772;39.872;2023-05-07T11:18:22;19.15;57.61
75683;HTU21D;64295;44.772;39.872;2023-05-07T11:27:02;19.31;57.13
75683;HTU21D;64295;44.772;39.872;2023-05-07T11:29:58;19.26;57.16
75683;HTU21D;64295;44.772;39.872;2023-05-07T11:32:44;19.22;57.19
75683;HTU21D;64295;44.772;39.872;2023-05-07T11:35:12;19.17;57.26
75683;HTU21D;64295;44.772;39.872;2023-05-07T11:38:21;19.16;57.25
75683;HTU21D;64295;44.772;39.872;2023-05-07T11:43:16;19.11;57.25
75683;HTU21D;64295;44.772;39.872;2023-05-07T11:45:47;19.12;57.27
75683;HTU21D;64295;44.772;39.872;2023-05-07T11:48:41;19.09;57.32
75683;HTU21D;64295;44.772;39.872;2023-05-07T11:51:08;19.08;57.39
75683;HTU21D;64295;44.772;39.872;2023-05-07T11:53:43;19.08;57.44
75683;HTU21D;64295;44.772;39.872;2023-05-07T11:56:22;19.16;57.35
75683;HTU21D;64295;44.772;39.872;2023-05-07T11:59:10;19.24;57.24
75683;HTU21D;64295;44.772;39.872;2023-05-07T12:02:22;19.24;57.29
75683;HTU21D;64295;44.772;39.872;2023-05-07T12:04:54;19.28;57.19
75683;HTU21D;64295;44.772;39.872;2023-05-07T12:07:28;19.36;57.18
75683;HTU21D;64295;44.772;39.872;2023-05-07T12:10:05;19.38;57.16
75683;HTU21D;64295;44.772;39.872;2023-05-07T12:12:39;19.28;57.35
75683;HTU21D;64295;44.772;39.872;2023-05-07T12:15:55;19.17;57.60
75683;HTU21D;64295;44.772;39.872;2023-05-07T12:18:42;19.09;57.75
75683;HTU21D;64295;44.772;39.872;2023-05-07T12:21:08;18.95;58.00
75683;HTU21D;64295;44.772;39.872;2023-05-07T12:23:41;18.88;58.25
75683;HTU21D;64295;44.772;39.872;2023-05-07T12:26:15;18.83;58.37
75683;HTU21D;64295;44.772;39.872;2023-05-07T12:28:51;18.73;58.60
75683;HTU21D;64295;44.772;39.872;2023-05-07T12:31:43;18.64;58.77
75683;HTU21D;64295;44.772;39.872;2023-05-07T12:34:12;18.57;58.89
75683;HTU21D;64295;44.772;39.872;2023-05-07T12:36:42;18.55;58.93
75683;HTU21D;64295;44.772;39.872;2023-05-07T12:39:07;18.51;58.87
75683;HTU21D;64295;44.772;39.872;2023-05-07T12:41:57;18.43;59.06
75683;HTU21D;64295;44.772;39.872;2023-05-07T12:44:33;18.35;59.23
75683;HTU21D;64295;44.772;39.872;2023-05-07T12:47:08;18.25;59.48
75683;HTU21D;64295;44.772;39.872;2023-05-07T12:49:35;18.14;59.74
75683;HTU21D;64295;44.772;39.872;2023-05-07T12:52:03;18.07;59.96
75683;HTU21D;64295;44.772;39.872;2023-05-07T12:54:33;18.00;60.14
75683;HTU21D;64295;44.772;39.872;2023-05-07T12:59:50;17.88;60.38
75683;HTU21D;64295;44.772;39.872;2023-05-07T13:02:18;17.84;60.55
75683;HTU21D;64295;44.772;39.872;2023-05-07T13:04:44;17.77;60.64
75683;HTU21D;64295;44.772;39.872;2023-05-07T13:07:10;17.75;60.74
75683;HTU21D;64295;44.772;39.872;2023-05-07T13:09:36;17.74;60.81
75683;HTU21D;64295;44.772;39.872;2023-05-07T13:12:02;17.70;60.88
75683;HTU21D;64295;44.772;39.872;2023-05-07T13:14:28;17.69;60.93
75683;HTU21D;64295;44.772;39.872;2023-05-07T13:16:54;17.69;60.98
75683;HTU21D;64295;44.772;39.872;2023-05-07T13:19:20;17.68;61.05
75683;HTU21D;64295;44.772;39.872;2023-05-07T13:21:46;17.66;61.17
75683;HTU21D;64295;44.772;39.872;2023-05-07T13:24:12;17.68;61.21
75683;HTU21D;64295;44.772;39.872;2023-05-07T13:26:38;17.69;61.26
75683;HTU21D;64295;44.772;39.872;2023-05-07T13:29:04;17.67;61.34
75683;HTU21D;64295;44.772;39.872;2023-05-07T13:31:32;17.68;61.44
75683;HTU21D;64295;44.772;39.872;2023-05-07T13:33:59;17.73;61.47
75683;HTU21D;64295;44.772;39.872;2023-05-07T13:36:28;17.75;61.52
75683;HTU21D;64295;44.772;39.872;2023-05-07T13:39:08;17.75;61.54
75683;HTU21D;64295;44.772;39.872;2023-05-07T13:41:34;17.74;61.63
75683;HTU21D;64295;44.772;39.872;2023-05-07T13:44:09;17.75;61.79
75683;HTU21D;64295;44.772;39.872;2023-05-07T13:46:38;17.84;61.90
75683;HTU21D;64295;44.772;39.872;2023-05-07T13:49:10;18.04;61.52
75683;HTU21D;64295;44.772;39.872;2023-05-07T13:51:36;18.05;61.60
75683;HTU21D;64295;44.772;39.872;2023-05-07T13:54:03;18.09;61.69
75683;HTU21D;64295;44.772;39.872;2023-05-07T13:56:31;18.12;61.76
75683;HTU21D;64295;44.772;39.872;2023-05-07T13:58:58;18.11;61.89
75683;HTU21D;64295;44.772;39.872;2023-05-07T14:01:24;18.08;62.07
75683;HTU21D;64295;44.772;39.872;2023-05-07T14:03:50;18.04;62.21
75683;HTU21D;64295;44.772;39.872;2023-05-07T14:06:22;18.02;62.34
75683;HTU21D;64295;44.772;39.872;2023-05-07T14:08:49;18.00;62.38
75683;HTU21D;64295;44.772;39.872;2023-05-07T14:11:15;17.96;62.57
75683;HTU21D;64295;44.772;39.872;2023-05-07T14:13:41;17.91;62.77
75683;HTU21D;64295;44.772;39.872;2023-05-07T14:16:07;17.85;62.93
75683;HTU21D;64295;44.772;39.872;2023-05-07T14:18:33;17.82;63.08
75683;HTU21D;64295;44.772;39.872;2023-05-07T14:21:04;17.80;63.19
75683;HTU21D;64295;44.772;39.872;2023-05-07T14:23:31;17.80;63.19
75683;HTU21D;64295;44.772;39.872;2023-05-07T14:25:57;17.77;63.28
75683;HTU21D;64295;44.772;39.872;2023-05-07T14:28:24;17.75;63.42
75683;HTU21D;64295;44.772;39.872;2023-05-07T14:30:50;17.74;63.50
75683;HTU21D;64295;44.772;39.872;2023-05-07T14:33:17;17.72;63.56
75683;HTU21D;64295;44.772;39.872;2023-05-07T14:35:43;17.76;63.55
75683;HTU21D;64295;44.772;39.872;2023-05-07T14:38:13;17.78;63.55
75683;HTU21D;64295;44.772;39.872;2023-05-07T14:40:39;17.77;63.56
75683;HTU21D;64295;44.772;39.872;2023-05-07T14:43:05;17.79;63.57
75683;HTU21D;64295;44.772;39.872;2023-05-07T14:45:31;17.81;63.61
75683;HTU21D;64295;44.772;39.872;2023-05-07T14:48:02;17.79;63.44
75683;HTU21D;64295;44.772;39.872;2023-05-07T14:50:28;17.80;63.37
75683;HTU21D;64295;44.772;39.872;2023-05-07T14:52:54;17.79;63.50
75683;HTU21D;64295;44.772;39.872;2023-05-07T14:55:20;17.79;63.60
75683;HTU21D;64295;44.772;39.872;2023-05-07T14:57:46;17.80;63.64
75683;HTU21D;64295;44.772;39.872;2023-05-07T15:00:13;17.81;63.73
75683;HTU21D;64295;44.772;39.872;2023-05-07T15:02:39;17.79;63.83
75683;HTU21D;64295;44.772;39.872;2023-05-07T15:05:05;17.78;63.93
75683;HTU21D;64295;44.772;39.872;2023-05-07T15:07:31;17.77;64.03
75683;HTU21D;64295;44.772;39.872;2023-05-07T15:10:01;17.70;64.24
75683;HTU21D;64295;44.772;39.872;2023-05-07T15:12:27;17.69;64.32
75683;HTU21D;64295;44.772;39.872;2023-05-07T15:14:53;17.67;64.39
75683;HTU21D;64295;44.772;39.872;2023-05-07T15:17:19;17.66;64.47
75683;HTU21D;64295;44.772;39.872;2023-05-07T15:19:45;17.63;64.56
75683;HTU21D;64295;44.772;39.872;2023-05-07T15:22:11;17.58;64.69
75683;HTU21D;64295;44.772;39.872;2023-05-07T15:24:36;17.54;64.76
75683;HTU21D;64295;44.772;39.872;2023-05-07T15:27:08;17.51;64.84
75683;HTU21D;64295;44.772;39.872;2023-05-07T15:29:38;17.49;64.85
75683;HTU21D;64295;44.772;39.872;2023-05-07T15:32:04;17.48;64.82
75683;HTU21D;64295;44.772;39.872;2023-05-07T15:34:30;17.44;64.86
75683;HTU21D;64295;44.772;39.872;2023-05-07T15:36:56;17.37;64.90